createdAt,value
2022-10-03T00:00:09.247Z,11.50
2022-10-03T00:03:24.320Z,11.50
2022-10-03T00:06:28.013Z,11.50
2022-10-03T00:08:59.289Z,11.40
2022-10-03T00:12:13.722Z,11.40
2022-10-03T00:15:13.520Z,11.40
2022-10-03T00:17:55.123Z,11.40
2022-10-03T00:20:45.348Z,11.30
2022-10-03T00:23:28.694Z,11.30
2022-10-03T00:26:28.573Z,11.30
2022-10-03T00:29:31.125Z,11.20
2022-10-03T00:32:38.212Z,11.10
2022-10-03T00:35:35.593Z,11.10
2022-10-03T00:38:27.098Z,11.10
2022-10-03T00:41:15.482Z,11.10
2022-10-03T00:44:04.246Z,11.00
2022-10-03T00:47:05.821Z,11.00
2022-10-03T00:49:54.300Z,11.00
2022-10-03T00:52:33.276Z,11.00
2022-10-03T00:55:18.531Z,11.00
2022-10-03T00:58:10.678Z,11.00
2022-10-03T01:00:41.433Z,10.90
2022-10-03T01:03:34.661Z,11.00
2022-10-03T01:06:18.084Z,10.90
2022-10-03T01:09:33.859Z,10.90
2022-10-03T01:12:37.613Z,10.90
2022-10-03T01:15:25.803Z,10.80
2022-10-03T01:18:20.838Z,10.70
2022-10-03T01:21:12.256Z,10.60
2022-10-03T01:24:26.511Z,10.60
2022-10-03T01:27:07.998Z,10.50
2022-10-03T01:30:21.295Z,10.50
2022-10-03T01:33:00.026Z,10.40
2022-10-03T01:35:56.578Z,10.30
2022-10-03T01:38:29.473Z,10.30
2022-10-03T01:41:45.862Z,10.30
2022-10-03T01:44:25.311Z,10.30
2022-10-03T01:47:01.890Z,10.20
2022-10-03T01:49:44.699Z,10.20
2022-10-03T01:52:51.701Z,10.20
2022-10-03T01:55:41.449Z,10.20
2022-10-03T01:58:33.498Z,10.10
2022-10-03T02:01:14.524Z,10.10
2022-10-03T02:04:08.616Z,9.90
2022-10-03T02:07:01.170Z,9.90
2022-10-03T02:09:41.534Z,9.90
2022-10-03T02:12:23.150Z,9.90
2022-10-03T02:15:00.928Z,9.90
2022-10-03T02:18:06.564Z,9.90
2022-10-03T02:20:51.956Z,9.80
2022-10-03T02:23:54.662Z,9.80
2022-10-03T02:26:43.214Z,9.80
2022-10-03T02:29:38.934Z,9.80
2022-10-03T02:32:27.486Z,9.80
2022-10-03T02:35:43.088Z,9.80
2022-10-03T02:38:41.273Z,9.90
2022-10-03T02:41:32.885Z,9.90
2022-10-03T02:44:07.338Z,9.80
2022-10-03T02:46:55.637Z,9.80
2022-10-03T02:50:03.182Z,9.80
2022-10-03T02:52:44.350Z,9.90
2022-10-03T02:55:44.728Z,9.90
2022-10-03T02:58:59.205Z,9.90
2022-10-03T03:01:56.824Z,10.00
2022-10-03T03:05:09.778Z,10.00
2022-10-03T03:07:52.161Z,10.00
2022-10-03T03:10:40.326Z,10.00
2022-10-03T03:13:46.718Z,10.00
2022-10-03T03:16:42.534Z,10.00
2022-10-03T03:19:47.634Z,10.00
2022-10-03T03:22:58.718Z,10.00
2022-10-03T03:25:42.173Z,10.10
2022-10-03T03:28:31.815Z,10.10
2022-10-03T03:31:23.821Z,10.00
2022-10-03T03:34:07.689Z,10.00
2022-10-03T03:36:45.729Z,10.10
2022-10-03T03:39:30.477Z,10.10
2022-10-03T03:42:15.082Z,10.10
2022-10-03T03:45:25.261Z,10.10
2022-10-03T03:48:13.040Z,10.10
2022-10-03T03:50:55.354Z,10.10
2022-10-03T03:53:54.865Z,10.10
2022-10-03T03:57:00.213Z,10.10
2022-10-03T03:59:50.399Z,10.10
2022-10-03T04:02:30.787Z,10.10
2022-10-03T04:05:04.096Z,10.10
2022-10-03T04:07:54.080Z,10.20
2022-10-03T04:10:41.669Z,10.20
2022-10-03T04:13:44.796Z,10.20
2022-10-03T04:17:02.189Z,10.10
2022-10-03T04:19:43.356Z,10.20
2022-10-03T04:22:29.386Z,10.20
2022-10-03T04:25:29.817Z,10.20
2022-10-03T04:28:32.099Z,10.20
2022-10-03T04:31:32.516Z,10.20
2022-10-03T04:34:05.786Z,10.20
2022-10-03T04:36:44.501Z,10.20
2022-10-03T04:39:32.942Z,10.20
2022-10-03T04:42:41.823Z,10.20
2022-10-03T04:45:39.456Z,10.20
2022-10-03T04:48:39.669Z,10.20
2022-10-03T04:51:42.185Z,10.20
2022-10-03T04:54:28.946Z,10.30
2022-10-03T04:57:25.462Z,10.30
2022-10-03T05:00:28.891Z,10.20
2022-10-03T05:03:04.857Z,10.30
2022-10-03T05:05:59.142Z,10.30
2022-10-03T05:08:47.948Z,10.30
2022-10-03T05:11:44.857Z,10.30
2022-10-03T05:14:45.809Z,10.30
2022-10-03T05:17:48.542Z,10.30
2022-10-03T05:23:47.293Z,10.30
2022-10-03T05:26:44.546Z,10.30
2022-10-03T05:29:29.847Z,10.40
2022-10-03T05:32:06.293Z,10.30
2022-10-03T05:38:10.059Z,10.40
2022-10-03T05:40:45.966Z,10.40
2022-10-03T05:43:44.244Z,10.50
2022-10-03T05:46:37.819Z,10.50
2022-10-03T05:49:50.327Z,10.50
2022-10-03T05:52:29.953Z,10.60
2022-10-03T05:55:10.210Z,10.50
2022-10-03T05:58:17.656Z,10.50
2022-10-03T06:01:23.922Z,10.60
2022-10-03T06:04:35.886Z,10.60
2022-10-03T06:07:25.976Z,10.70
2022-10-03T06:10:25.930Z,10.70
2022-10-03T06:13:36.129Z,10.80
2022-10-03T06:16:26.009Z,10.80
2022-10-03T06:19:17.309Z,10.90
2022-10-03T06:22:13.891Z,10.90
2022-10-03T06:24:57.940Z,11.00
2022-10-03T06:27:45.832Z,11.10
2022-10-03T06:30:26.795Z,11.10
2022-10-03T06:33:21.620Z,11.20
2022-10-03T06:36:03.916Z,11.30
2022-10-03T06:38:51.236Z,11.30
2022-10-03T06:41:35.300Z,11.40
2022-10-03T06:44:13.717Z,11.40
2022-10-03T06:46:49.486Z,11.50
2022-10-03T06:49:31.995Z,11.50
2022-10-03T06:52:26.603Z,11.50
2022-10-03T06:55:13.909Z,11.50
2022-10-03T06:58:07.984Z,11.60
2022-10-03T07:00:53.742Z,11.60
2022-10-03T07:03:52.968Z,11.70
2022-10-03T07:07:09.046Z,11.80
2022-10-03T07:09:45.239Z,11.90
2022-10-03T07:12:37.170Z,12.10
2022-10-03T07:15:57.822Z,12.20
2022-10-03T07:18:41.817Z,12.70
2022-10-03T07:21:32.562Z,13.10
2022-10-03T07:24:13.287Z,13.30
2022-10-03T07:27:20.825Z,13.50
2022-10-03T07:33:10.989Z,13.90
2022-10-03T07:36:07.124Z,14.00
2022-10-03T07:39:07.248Z,14.30
2022-10-03T07:42:20.540Z,15.00
2022-10-03T07:45:25.005Z,15.40
2022-10-03T07:48:06.924Z,15.80
2022-10-03T07:50:59.370Z,17.50
2022-10-03T07:53:53.523Z,19.50
2022-10-03T07:56:48.252Z,20.30
2022-10-03T07:59:41.890Z,20.10
2022-10-03T08:02:50.916Z,20.30
2022-10-03T08:05:56.555Z,20.90
2022-10-03T08:08:44.800Z,22.30
2022-10-03T08:11:29.973Z,22.20
2022-10-03T08:14:07.891Z,24.70
2022-10-03T08:17:12.315Z,26.20
2022-10-03T08:19:48.580Z,27.80
2022-10-03T08:22:51.250Z,27.90
2022-10-03T08:26:02.921Z,28.60
2022-10-03T08:28:48.611Z,29.00
2022-10-03T08:31:18.819Z,30.50
2022-10-03T08:34:14.893Z,30.30
2022-10-03T08:36:56.478Z,31.60
2022-10-03T08:39:38.577Z,32.20
2022-10-03T08:42:45.045Z,32.20
2022-10-03T08:45:57.808Z,33.60
2022-10-03T08:48:59.593Z,34.10
2022-10-03T08:51:59.059Z,32.90
2022-10-03T08:54:54.700Z,33.10
2022-10-03T08:57:42.527Z,30.30
2022-10-03T09:00:25.203Z,31.20
2022-10-03T09:03:36.877Z,26.90
2022-10-03T09:06:58.571Z,24.70
2022-10-03T09:09:53.506Z,23.90
2022-10-03T09:12:29.110Z,26.60
2022-10-03T09:15:17.902Z,28.60
2022-10-03T09:18:29.184Z,29.00
2022-10-03T09:21:10.504Z,32.60
2022-10-03T09:23:39.997Z,32.10
2022-10-03T09:26:29.370Z,33.50
2022-10-03T09:29:09.012Z,32.80
2022-10-03T09:32:05.115Z,32.10
2022-10-03T09:34:48.926Z,31.40
2022-10-03T09:37:39.065Z,28.80
2022-10-03T09:40:31.300Z,26.70
2022-10-03T09:43:31.502Z,25.30
2022-10-03T09:46:21.571Z,24.40
2022-10-03T09:49:13.765Z,24.30
2022-10-03T09:52:12.852Z,24.20
2022-10-03T09:55:02.153Z,23.70
2022-10-03T09:58:00.348Z,23.30
2022-10-03T10:03:59.262Z,23.20
2022-10-03T10:06:47.568Z,23.20
2022-10-03T10:09:59.220Z,23.00
2022-10-03T10:13:05.834Z,23.10
2022-10-03T10:16:23.287Z,22.90
2022-10-03T10:19:12.684Z,22.90
2022-10-03T10:22:08.865Z,23.10
2022-10-03T10:24:52.913Z,22.90
2022-10-03T10:27:49.515Z,23.00
2022-10-03T10:30:25.056Z,23.00
2022-10-03T10:33:12.529Z,22.90
2022-10-03T10:36:34.866Z,23.00
2022-10-03T10:39:44.925Z,22.80
2022-10-03T10:42:49.450Z,22.70
2022-10-03T10:45:39.540Z,22.70
2022-10-03T10:48:36.897Z,22.60
2022-10-03T10:51:47.639Z,22.40
2022-10-03T10:54:32.412Z,22.40
2022-10-03T10:57:15.756Z,22.30
2022-10-03T11:00:20.245Z,22.50
2022-10-03T11:03:35.061Z,22.50
2022-10-03T11:06:43.331Z,22.60
2022-10-03T11:09:55.220Z,22.10
2022-10-03T11:12:42.342Z,21.90
2022-10-03T11:15:31.404Z,22.30
2022-10-03T11:18:28.553Z,22.10
2022-10-03T11:21:24.627Z,22.10
2022-10-03T11:24:32.132Z,22.10
2022-10-03T11:27:46.381Z,22.00
2022-10-03T11:30:32.254Z,21.70
2022-10-03T11:33:46.718Z,21.90
2022-10-03T11:36:45.415Z,21.70
2022-10-03T11:39:44.003Z,21.60
2022-10-03T11:42:46.102Z,21.60
2022-10-03T11:45:21.820Z,21.40
2022-10-03T11:48:23.688Z,21.50
2022-10-03T11:51:01.171Z,21.40
2022-10-03T11:54:29.459Z,21.20
2022-10-03T11:57:07.003Z,21.10
2022-10-03T11:59:53.252Z,21.40
2022-10-03T12:02:45.901Z,21.60
2022-10-03T12:05:42.642Z,21.60
2022-10-03T12:08:54.185Z,21.50
2022-10-03T12:11:29.713Z,21.20
2022-10-03T12:14:23.144Z,21.10
2022-10-03T12:17:12.724Z,21.10
2022-10-03T12:20:18.658Z,20.90
2022-10-03T12:22:59.754Z,20.80
2022-10-03T12:25:42.213Z,20.70
2022-10-03T12:28:30.558Z,20.40
2022-10-03T12:31:28.746Z,20.50
2022-10-03T12:34:08.826Z,20.30
2022-10-03T12:37:12.019Z,20.40
2022-10-03T12:39:46.989Z,20.20
2022-10-03T12:42:37.713Z,20.00
2022-10-03T12:45:42.102Z,20.30
2022-10-03T12:48:34.971Z,20.30
2022-10-03T12:51:06.500Z,20.00
2022-10-03T12:54:02.759Z,19.90
2022-10-03T12:57:16.950Z,20.00
2022-10-03T13:00:25.920Z,19.60
2022-10-03T13:03:12.391Z,19.50
2022-10-03T13:06:17.138Z,19.50
2022-10-03T13:09:13.483Z,19.50
2022-10-03T13:12:10.434Z,19.40
2022-10-03T13:15:27.019Z,19.40
2022-10-03T13:18:26.348Z,19.20
2022-10-03T13:21:13.115Z,19.00
2022-10-03T13:24:11.631Z,18.90
2022-10-03T13:26:52.339Z,19.10
2022-10-03T13:29:54.362Z,19.00
2022-10-03T13:32:39.651Z,19.00
2022-10-03T13:35:50.631Z,19.10
2022-10-03T13:38:32.115Z,19.20
2022-10-03T13:41:26.396Z,19.30
2022-10-03T13:44:12.819Z,19.10
2022-10-03T13:47:04.881Z,19.00
2022-10-03T13:49:52.238Z,19.00
2022-10-03T13:52:37.893Z,18.90
2022-10-03T13:55:21.792Z,19.00
2022-10-03T13:58:25.184Z,19.00
2022-10-03T14:01:04.273Z,19.00
2022-10-03T14:03:46.517Z,19.00
2022-10-03T14:06:43.975Z,19.00
2022-10-03T14:09:30.702Z,19.10
2022-10-03T14:12:33.175Z,19.10
2022-10-03T14:15:21.041Z,18.90
2022-10-03T14:18:07.812Z,18.80
2022-10-03T14:20:53.532Z,18.70
2022-10-03T14:23:33.998Z,18.70
2022-10-03T14:26:30.148Z,18.70
2022-10-03T14:29:28.931Z,18.70
2022-10-03T14:32:22.583Z,18.80
2022-10-03T14:35:26.428Z,18.80
2022-10-03T14:38:16.182Z,18.90
2022-10-03T14:41:02.831Z,18.90
2022-10-03T14:43:45.984Z,18.80
2022-10-03T14:46:15.946Z,18.80
2022-10-03T14:48:51.594Z,18.70
2022-10-03T14:51:43.073Z,18.70
2022-10-03T14:54:21.431Z,18.70
2022-10-03T14:56:51.588Z,18.70
2022-10-03T14:59:23.863Z,18.60
2022-10-03T15:01:54.133Z,18.40
2022-10-03T15:04:29.156Z,18.40
2022-10-03T15:07:00.297Z,18.50
2022-10-03T15:09:33.711Z,18.40
2022-10-03T15:12:24.637Z,18.30
2022-10-03T15:15:01.216Z,18.40
2022-10-03T15:17:32.052Z,18.30
2022-10-03T15:20:01.370Z,18.40
2022-10-03T15:22:41.389Z,18.30
2022-10-03T15:25:14.291Z,18.20
2022-10-03T15:27:43.520Z,18.20
2022-10-03T15:30:22.179Z,18.10
2022-10-03T15:32:50.698Z,18.10
2022-10-03T15:35:22.567Z,17.90
2022-10-03T15:37:49.956Z,17.80
2022-10-03T15:40:25.430Z,17.70
2022-10-03T15:43:03.622Z,17.60
2022-10-03T15:45:33.558Z,17.60
2022-10-03T15:48:05.271Z,17.60
2022-10-03T15:50:39.108Z,17.50
2022-10-03T15:53:36.552Z,17.40
2022-10-03T15:56:24.088Z,17.30
2022-10-03T15:58:57.175Z,17.20
2022-10-03T16:01:41.097Z,17.10
2022-10-03T16:04:21.991Z,17.10
2022-10-03T16:07:11.816Z,17.10
2022-10-03T16:09:53.135Z,17.00
2022-10-03T16:12:20.013Z,17.00
2022-10-03T16:15:16.976Z,16.80
2022-10-03T16:17:51.827Z,16.70
2022-10-03T16:20:37.273Z,16.60
2022-10-03T16:23:26.897Z,16.40
2022-10-03T16:26:04.966Z,16.20
2022-10-03T16:28:39.537Z,16.10
2022-10-03T16:31:29.993Z,16.00
2022-10-03T16:34:04.439Z,15.90
2022-10-03T16:36:41.068Z,15.80
2022-10-03T16:39:26.803Z,15.70
2022-10-03T16:41:55.489Z,15.60
2022-10-03T16:44:34.060Z,15.60
2022-10-03T16:47:03.600Z,15.40
2022-10-03T16:50:08.347Z,15.30
2022-10-03T16:52:40.503Z,15.10
2022-10-03T16:55:13.265Z,14.80
2022-10-03T16:57:51.949Z,14.70
2022-10-03T17:00:26.645Z,14.70
2022-10-03T17:02:55.548Z,14.60
2022-10-03T17:05:23.178Z,14.40
2022-10-03T17:08:06.625Z,14.50
2022-10-03T17:10:41.250Z,14.40
2022-10-03T17:13:16.405Z,14.20
2022-10-03T17:16:14.028Z,14.10
2022-10-03T17:18:44.680Z,14.00
2022-10-03T17:21:22.521Z,13.90
2022-10-03T17:24:09.673Z,13.80
2022-10-03T17:26:45.550Z,13.80
2022-10-03T17:29:37.825Z,13.70
2022-10-03T17:32:44.978Z,13.70
2022-10-03T17:35:41.190Z,13.60
2022-10-03T17:38:48.881Z,13.50
2022-10-03T17:41:18.719Z,13.50
2022-10-03T17:43:50.067Z,13.40
2022-10-03T17:46:26.203Z,13.30
2022-10-03T17:49:17.856Z,13.20
2022-10-03T17:51:48.220Z,13.00
2022-10-03T17:54:20.170Z,13.10
2022-10-03T17:57:07.326Z,13.10
2022-10-03T17:59:46.839Z,13.00
2022-10-03T18:02:24.279Z,13.00
2022-10-03T18:05:01.684Z,12.80
2022-10-03T18:07:30.654Z,12.70
2022-10-03T18:09:58.219Z,12.60
2022-10-03T18:12:40.468Z,12.60
2022-10-03T18:15:22.811Z,12.50
2022-10-03T18:17:49.847Z,12.50
2022-10-03T18:20:34.895Z,12.50
2022-10-03T18:23:08.537Z,12.40
2022-10-03T18:26:19.632Z,12.30
2022-10-03T18:29:22.552Z,12.20
2022-10-03T18:31:59.129Z,12.20
2022-10-03T18:34:48.203Z,12.10
2022-10-03T18:37:29.140Z,12.00
2022-10-03T18:39:59.185Z,11.90
2022-10-03T18:42:29.978Z,11.80
2022-10-03T18:44:59.726Z,11.80
2022-10-03T18:47:31.127Z,11.70
2022-10-03T18:50:21.767Z,11.70
2022-10-03T18:52:54.061Z,11.70
2022-10-03T18:55:29.397Z,11.60
2022-10-03T18:58:18.992Z,11.60
2022-10-03T19:01:02.085Z,11.60
2022-10-03T19:03:44.336Z,11.60
2022-10-03T19:06:25.447Z,11.60
2022-10-03T19:09:00.362Z,11.50
2022-10-03T19:11:58.499Z,11.30
2022-10-03T19:14:58.292Z,11.30
2022-10-03T19:17:50.279Z,11.30
2022-10-03T19:20:33.633Z,11.30
2022-10-03T19:23:27.312Z,11.20
2022-10-03T19:25:59.383Z,11.20
2022-10-03T19:28:35.557Z,11.20
2022-10-03T19:31:12.055Z,11.10
2022-10-03T19:33:45.384Z,11.00
2022-10-03T19:36:21.918Z,11.00
2022-10-03T19:38:50.135Z,10.90
2022-10-03T19:41:27.653Z,10.90
2022-10-03T19:43:55.595Z,10.80
2022-10-03T19:46:34.585Z,10.80
2022-10-03T19:49:19.848Z,10.70
2022-10-03T19:51:49.050Z,10.70
2022-10-03T19:54:43.079Z,10.70
2022-10-03T19:57:19.764Z,10.60
2022-10-03T19:59:54.994Z,10.60
2022-10-03T20:02:27.268Z,10.40
2022-10-03T20:04:57.325Z,10.40
2022-10-03T20:07:46.865Z,10.40
2022-10-03T20:10:36.375Z,10.50
2022-10-03T20:13:04.263Z,10.40
2022-10-03T20:15:50.464Z,10.30
2022-10-03T20:18:25.043Z,10.30
2022-10-03T20:20:55.037Z,10.30
2022-10-03T20:23:25.764Z,10.30
2022-10-03T20:26:01.584Z,10.30
2022-10-03T20:28:39.383Z,10.30
2022-10-03T20:31:06.977Z,10.20
2022-10-03T20:33:37.311Z,10.20
2022-10-03T20:36:25.560Z,10.20
2022-10-03T20:39:01.316Z,10.20
2022-10-03T20:41:42.305Z,10.10
2022-10-03T20:44:35.543Z,10.10
2022-10-03T20:47:07.029Z,10.10
2022-10-03T20:49:40.260Z,10.10
2022-10-03T20:52:08.802Z,10.10
2022-10-03T20:54:46.769Z,10.00
2022-10-03T20:57:20.020Z,10.00
2022-10-03T20:59:55.912Z,10.00
2022-10-03T21:02:52.321Z,9.90
2022-10-03T21:05:39.050Z,9.90
2022-10-03T21:08:17.538Z,9.80
2022-10-03T21:10:54.860Z,9.70
2022-10-03T21:13:40.824Z,9.70
2022-10-03T21:16:21.444Z,9.60
2022-10-03T21:18:51.249Z,9.60
2022-10-03T21:21:31.333Z,9.50
2022-10-03T21:24:21.225Z,9.50
2022-10-03T21:26:56.865Z,9.50
2022-10-03T21:29:23.789Z,9.50
2022-10-03T21:31:50.799Z,9.40
2022-10-03T21:34:43.895Z,9.40
2022-10-03T21:37:26.065Z,9.30
2022-10-03T21:40:40.843Z,9.30
2022-10-03T21:43:45.413Z,9.30
2022-10-03T21:46:38.327Z,9.30
2022-10-03T21:49:22.702Z,9.10
2022-10-03T21:51:49.576Z,9.00
2022-10-03T21:54:27.171Z,9.00
2022-10-03T21:56:56.979Z,9.00
2022-10-03T21:59:56.318Z,8.90
2022-10-03T22:02:32.166Z,8.90
2022-10-03T22:05:06.010Z,8.80
2022-10-03T22:07:42.049Z,8.90
2022-10-03T22:10:21.511Z,8.90
2022-10-03T22:12:55.801Z,8.90
2022-10-03T22:15:22.802Z,8.90
2022-10-03T22:18:11.481Z,8.70
2022-10-03T22:21:02.500Z,8.70
2022-10-03T22:23:38.602Z,8.70
2022-10-03T22:26:37.203Z,8.70
2022-10-03T22:29:13.008Z,8.60
2022-10-03T22:31:51.235Z,8.60
2022-10-03T22:34:20.915Z,8.60
2022-10-03T22:36:48.814Z,8.60
2022-10-03T22:39:18.441Z,8.50
2022-10-03T22:41:50.581Z,8.50
2022-10-03T22:44:22.925Z,8.50
2022-10-03T22:46:53.134Z,8.50
2022-10-03T22:49:48.119Z,8.40
2022-10-03T22:52:24.345Z,8.40
2022-10-03T22:54:52.498Z,8.20
2022-10-03T22:57:19.886Z,8.20
2022-10-03T23:00:00.935Z,8.20
2022-10-03T23:02:33.538Z,8.20
2022-10-03T23:05:07.102Z,8.20
2022-10-03T23:07:46.175Z,8.20
2022-10-03T23:10:24.323Z,8.10
2022-10-03T23:13:35.955Z,8.10
2022-10-03T23:16:40.553Z,8.10
2022-10-03T23:19:19.299Z,7.90
2022-10-03T23:21:48.284Z,7.90
2022-10-03T23:24:44.184Z,7.80
2022-10-03T23:27:49.048Z,7.80
2022-10-03T23:30:15.893Z,7.80
2022-10-03T23:32:49.099Z,7.70
2022-10-03T23:35:20.223Z,7.60
2022-10-03T23:37:49.243Z,7.60
2022-10-03T23:40:50.635Z,7.60
2022-10-03T23:43:23.696Z,7.60
2022-10-03T23:45:53.405Z,7.60
2022-10-03T23:48:23.838Z,7.60
2022-10-03T23:50:57.668Z,7.60
2022-10-03T23:53:31.575Z,7.60
2022-10-03T23:56:03.992Z,7.60
2022-10-03T23:58:34.171Z,7.50
